PDT,Max TemperatureF,Mean TemperatureF,Min TemperatureF,Max Dew PointF,MeanDew PointF,Min DewpointF,Max Humidity, Mean Humidity, Min Humidity, Max Sea Level PressureIn, Mean Sea Level PressureIn, Min Sea Level PressureIn, Max VisibilityMiles, Mean VisibilityMiles, Min VisibilityMiles, Max Wind SpeedMPH, Mean Wind SpeedMPH, Max Gust SpeedMPH,PrecipitationIn, CloudCover, Events, WindDirDegrees
2012-3-1,64,57,50,50,45,43,83,66,48,30.18,30.13,30.06,10,10,10,12,4,16,0.00,3,,173
2012-3-2,77,63,48,45,35,9,77,47,16,30.25,30.14,30.09,10,10,9,12,5,17,0.00,0,,103
2012-3-3,84,65,45,33,24,11,54,31,7,30.25,30.20,30.15,10,10,10,10,3,15,0.00,0,,328
2012-3-4,95,74,53,37,27,21,45,26,7,30.14,30.03,29.94,10,10,10,13,3,17,0.00,0,,326
2012-3-5,83,70,56,54,42,33,47,32,17,30.01,29.96,29.92,10,9,4,8,1,10,0.00,1,,180
2012-3-6,64,60,56,54,47,39,86,67,48,29.95,29.88,29.79,10,9,4,13,6,20,0.00,6,,188
2012-3-7,68,58,47,37,20,7,63,36,9,30.15,30.02,29.87,10,10,10,9,2,15,0.00,0,,302
2012-3-8,81,62,42,35,23,11,70,39,8,30.25,30.20,30.16,10,10,10,12,1,20,0.00,0,,321
2012-3-9,89,69,48,32,24,15,46,27,7,30.24,30.12,30.01,10,10,10,14,3,21,0.00,0,,326
2012-3-10,78,64,50,51,40,27,44,34,24,30.02,29.99,29.94,10,10,8,10,3,16,0.00,0,,175
2012-3-11,67,62,56,50,46,44,77,61,45,30.07,30.03,29.99,10,10,10,12,5,17,0.00,5,,166
2012-3-12,70,62,53,48,45,44,72,58,44,30.07,30.03,29.97,10,10,8,12,3,15,0.00,4,,156
2012-3-13,69,61,53,49,47,45,77,61,45,30.09,30.06,30.02,10,8,6,12,2,14,0.00,4,,280
2012-3-14,70,61,51,50,48,44,77,61,44,30.17,30.12,30.08,10,10,8,12,4,15,0.00,3,,255
2012-3-15,68,63,57,52,50,48,80,68,56,30.16,30.11,30.06,10,9,6,10,4,15,0.00,5,,197
2012-3-16,64,60,56,54,52,51,80,74,67,30.09,30.01,29.94,10,9,4,9,3,13,T,8,Rain,190
2012-3-17,59,54,48,55,50,37,93,74,54,29.94,29.79,29.72,10,7,0,21,7,31,0.65,8,Fog-Rain,203
2012-3-18,60,54,48,43,40,34,80,60,40,29.95,29.80,29.71,10,10,5,22,6,35,0.06,5,Rain,261
2012-3-19,65,56,47,39,34,27,66,47,27,30.05,29.96,29.91,10,10,10,13,2,22,0.00,2,,218
2012-3-20,73,59,45,40,37,34,71,49,26,30.14,30.09,30.06,10,10,6,10,2,14,0.00,0,,225
2012-3-21,80,64,48,43,36,29,66,42,17,30.11,30.02,29.93,10,10,10,13,3,16,0.00,0,,266
2012-3-22,73,62,50,52,47,39,89,64,38,29.99,29.93,29.88,10,8,0,12,4,15,0.00,3,Fog,169
2012-3-23,69,63,56,52,49,48,77,63,49,30.07,30.01,29.98,10,10,7,10,4,15,0.00,4,,183
2012-3-24,69,62,55,49,48,46,77,61,45,30.00,29.96,29.90,10,10,10,12,3,15,0.00,4,,176
2012-3-25,65,59,52,54,48,43,80,62,44,29.95,29.89,29.82,10,8,0,23,6,32,0.65,7,Rain,138
2012-3-26,66,59,52,50,47,44,89,71,52,30.13,30.05,29.97,10,9,2,10,6,16,T,5,Rain,106
2012-3-27,71,59,47,47,44,39,86,62,37,30.11,30.07,30.03,10,10,6,12,2,17,0.00,0,,275
2012-3-28,72,60,48,54,48,43,80,62,44,30.12,30.06,30.01,10,10,9,10,4,16,0.00,1,,190
2012-3-29,70,64,58,54,52,51,86,72,57,30.07,30.03,29.97,10,8,5,10,2,22,0.00,5,,179
2012-3-30,69,64,58,52,52,51,75,65,55,30.02,29.98,29.94,10,7,3,9,2,14,0.00,5,,185
2012-3-31,66,61,56,54,51,46,80,68,56,30.05,30.00,29.98,10,8,2,12,3,15,0.00,7,Rain,191